Time;durP1;ratioP1;P1;durP2;ratioP2;P2;SDS_P1;SDS_P2;PMS_P1;PMS_P2;Temp;Humidity;BMP_temperature;BMP_pressure;BME280_temperature;BME280_humidity;BME280_pressure;Samples;Min_cycle;Max_cycle;Signal;HPM_P1;HPM_P2
2021/11/16 00:01:25;;;;;;;132.82;52.70;;;;;;;;;;5057524;28;20040;-64
2021/11/16 00:03:52;;;;;;;121.95;51.60;;;;;;;;;;5067865;28;20432;-64
2021/11/16 00:06:18;;;;;;;123.60;54.45;;;;;;;;;;5057860;28;20032;-64
2021/11/16 00:08:44;;;;;;;130.23;52.38;;;;;;;;;;5062619;28;20107;-64
2021/11/16 00:11:10;;;;;;;136.73;54.70;;;;;;;;;;5060233;28;20052;-64
2021/11/16 00:13:36;;;;;;;144.38;54.97;;;;;;;;;;5071081;28;20048;-64
2021/11/16 00:16:02;;;;;;;125.45;49.53;;;;;;;;;;5069447;28;20018;-64
2021/11/16 00:18:30;;;;;;;137.05;55.38;;;;;;;;;;5072065;28;20097;-64
2021/11/16 00:20:57;;;;;;;145.48;55.28;;;;;;;;;;5059637;28;20514;-64
2021/11/16 00:23:24;;;;;;;141.13;56.92;;;;;;;;;;5065948;28;20065;-64
2021/11/16 00:25:55;;;;;;;123.03;51.55;;;;;;;;;;5055067;28;20044;-64
2021/11/16 00:28:22;;;;;;;126.28;50.85;;;;;;;;;;5067762;28;20100;-64
2021/11/16 00:30:48;;;;;;;131.50;50.17;;;;;;;;;;5071430;28;20117;-64
2021/11/16 00:33:15;;;;;;;125.20;50.92;;;;;;;;;;5057579;28;20029;-64
2021/11/16 00:35:41;;;;;;;138.43;54.35;;;;;;;;;;5068122;28;20028;-64
2021/11/16 00:38:08;;;;;;;153.85;55.45;;;;;;;;;;5055764;28;20019;-64
2021/11/16 00:40:35;;;;;;;125.35;50.58;;;;;;;;;;5061649;28;20021;-63
2021/11/16 00:43:04;;;;;;;161.35;55.50;;;;;;;;;;5061543;28;20572;-64
2021/11/16 00:45:30;;;;;;;136.23;49.50;;;;;;;;;;5069506;28;20020;-64
2021/11/16 00:47:56;;;;;;;143.70;54.42;;;;;;;;;;5061125;28;20017;-64
2021/11/16 00:50:22;;;;;;;137.18;53.53;;;;;;;;;;5055941;28;20543;-64
2021/11/16 00:52:48;;;;;;;132.93;52.60;;;;;;;;;;5060173;28;20064;-64
2021/11/16 00:55:15;;;;;;;128.13;51.10;;;;;;;;;;5063416;28;20052;-64
2021/11/16 01:00:09;;;;;;;132.60;53.05;;;;;;;;;;5103861;22;20480;-69
2021/11/16 01:02:35;;;;;;;134.82;50.08;;;;;;;;;;5082619;28;20024;-69
2021/11/16 01:05:01;;;;;;;129.02;50.13;;;;;;;;;;5083206;28;20020;-69
2021/11/16 01:07:27;;;;;;;114.60;48.72;;;;;;;;;;5074842;28;20028;-70
2021/11/16 01:09:53;;;;;;;115.32;47.75;;;;;;;;;;5088742;28;20048;-70
2021/11/16 01:12:21;;;;;;;126.68;49.20;;;;;;;;;;5076448;28;20020;-70
2021/11/16 01:14:47;;;;;;;123.78;48.95;;;;;;;;;;5082152;28;20031;-70
2021/11/16 01:17:13;;;;;;;131.52;51.25;;;;;;;;;;5084824;28;20398;-70
2021/11/16 01:19:39;;;;;;;114.00;48.22;;;;;;;;;;5065319;28;20029;-69
2021/11/16 01:22:05;;;;;;;131.98;50.08;;;;;;;;;;5078202;28;20027;-69
2021/11/16 01:24:31;;;;;;;119.00;49.28;;;;;;;;;;5079735;28;20356;-69
2021/11/16 01:26:58;;;;;;;118.57;47.55;;;;;;;;;;5062509;28;20028;-69
2021/11/16 01:29:24;;;;;;;112.20;46.90;;;;;;;;;;5084954;28;20095;-68
2021/11/16 01:31:53;;;;;;;116.70;48.28;;;;;;;;;;5073392;28;20021;-69
2021/11/16 01:34:26;;;;;;;116.53;45.40;;;;;;;;;;5084732;28;20016;-69
2021/11/16 01:36:52;;;;;;;112.72;46.63;;;;;;;;;;5077465;28;20009;-69
2021/11/16 01:39:18;;;;;;;134.60;48.97;;;;;;;;;;5083947;28;20537;-69
2021/11/16 01:41:44;;;;;;;113.28;44.92;;;;;;;;;;5074403;28;20393;-69
2021/11/16 01:44:10;;;;;;;115.80;46.00;;;;;;;;;;5086003;28;20012;-69
2021/11/16 01:46:36;;;;;;;115.18;46.80;;;;;;;;;;5074080;28;20035;-69
2021/11/16 01:49:03;;;;;;;107.32;43.38;;;;;;;;;;5082863;28;20103;-69
2021/11/16 01:51:30;;;;;;;115.07;43.25;;;;;;;;;;5074262;28;20021;-69
2021/11/16 01:54:02;;;;;;;107.25;43.55;;;;;;;;;;5086999;28;20024;-69
2021/11/16 01:56:54;;;;;;;120.18;48.70;;;;;;;;;;5078319;28;20036;-70
2021/11/16 01:59:20;;;;;;;113.70;45.15;;;;;;;;;;5067148;28;20041;-71
2021/11/16 02:01:47;;;;;;;112.40;43.95;;;;;;;;;;5085482;28;20024;-70
2021/11/16 02:04:15;;;;;;;117.65;45.08;;;;;;;;;;5075537;28;20516;-69
2021/11/16 02:06:42;;;;;;;118.50;44.47;;;;;;;;;;5082487;28;20027;-69
2021/11/16 02:09:10;;;;;;;119.28;46.65;;;;;;;;;;5078557;28;20024;-69
2021/11/16 02:11:36;;;;;;;130.95;47.80;;;;;;;;;;5087118;28;20032;-69
2021/11/16 02:14:03;;;;;;;112.28;47.22;;;;;;;;;;5073761;28;20012;-69
2021/11/16 02:16:32;;;;;;;120.90;46.25;;;;;;;;;;5084514;28;20028;-69
2021/11/16 02:18:58;;;;;;;131.48;47.35;;;;;;;;;;5076144;28;20052;-69
2021/11/16 02:21:24;;;;;;;131.13;49.78;;;;;;;;;;5089505;28;20533;-68
2021/11/16 02:23:50;;;;;;;136.32;49.47;;;;;;;;;;5065547;28;20540;-69
2021/11/16 02:26:16;;;;;;;146.90;52.30;;;;;;;;;;5080054;28;20481;-69
2021/11/16 02:28:44;;;;;;;122.15;46.63;;;;;;;;;;5085389;28;20020;-68
2021/11/16 02:31:11;;;;;;;124.82;48.28;;;;;;;;;;5087250;28;20031;-68
2021/11/16 02:33:37;;;;;;;127.53;44.83;;;;;;;;;;5076548;28;20020;-69
2021/11/16 02:36:03;;;;;;;128.00;47.47;;;;;;;;;;5084860;28;20035;-71
2021/11/16 02:38:30;;;;;;;125.03;49.10;;;;;;;;;;5085460;28;20115;-70
2021/11/16 02:40:56;;;;;;;120.75;45.85;;;;;;;;;;5072772;28;20051;-69
2021/11/16 02:43:22;;;;;;;130.00;47.72;;;;;;;;;;5082657;28;20032;-69
2021/11/16 02:45:49;;;;;;;124.82;48.17;;;;;;;;;;5071612;28;20028;-69
2021/11/16 02:48:15;;;;;;;120.28;46.47;;;;;;;;;;5060992;28;20025;-69
2021/11/16 02:50:50;;;;;;;124.22;48.67;;;;;;;;;;5082732;28;20055;-69
2021/11/16 02:53:16;;;;;;;119.90;46.95;;;;;;;;;;5079226;28;20732;-69
2021/11/16 02:55:42;;;;;;;126.45;46.00;;;;;;;;;;5090040;28;20108;-71
2021/11/16 02:58:09;;;;;;;116.85;47.10;;;;;;;;;;5077874;28;20374;-71
2021/11/16 03:00:35;;;;;;;109.43;42.58;;;;;;;;;;5084451;28;20025;-69
2021/11/16 03:03:01;;;;;;;133.93;47.17;;;;;;;;;;5084510;28;20100;-69
2021/11/16 03:05:36;;;;;;;140.18;51.33;;;;;;;;;;5076716;28;20115;-68
2021/11/16 03:08:17;;;;;;;142.90;50.10;;;;;;;;;;5060621;28;20024;-70
2021/11/16 03:10:43;;;;;;;136.77;50.78;;;;;;;;;;5084368;28;20134;-68
2021/11/16 03:13:10;;;;;;;151.30;51.50;;;;;;;;;;5085465;28;20069;-69
2021/11/16 03:15:36;;;;;;;131.15;50.20;;;;;;;;;;5076743;28;20029;-69
2021/11/16 03:18:03;;;;;;;141.65;51.25;;;;;;;;;;5089561;28;20043;-69
2021/11/16 03:20:29;;;;;;;136.80;51.00;;;;;;;;;;5080523;28;20050;-70
2021/11/16 03:22:58;;;;;;;131.07;49.60;;;;;;;;;;5079085;28;20563;-69
2021/11/16 03:25:28;;;;;;;118.07;48.05;;;;;;;;;;5087851;28;20023;-69
2021/11/16 03:27:58;;;;;;;125.82;48.20;;;;;;;;;;5066754;28;20017;-69
2021/11/16 03:30:24;;;;;;;121.15;49.10;;;;;;;;;;5079961;28;20103;-69
2021/11/16 03:32:50;;;;;;;139.88;52.40;;;;;;;;;;5082736;28;20478;-70
2021/11/16 03:35:16;;;;;;;117.05;48.90;;;;;;;;;;5086888;28;20524;-69
2021/11/16 03:37:47;;;;;;;118.63;46.80;;;;;;;;;;5076151;28;20071;-69
2021/11/16 03:40:13;;;;;;;103.93;44.83;;;;;;;;;;5087343;28;20016;-70
2021/11/16 03:42:41;;;;;;;104.03;45.53;;;;;;;;;;5083279;28;20029;-71
2021/11/16 03:45:07;;;;;;;105.55;44.35;;;;;;;;;;5085073;28;20036;-70
2021/11/16 03:47:33;;;;;;;107.47;46.47;;;;;;;;;;5064556;28;20022;-70
2021/11/16 03:49:59;;;;;;;106.30;44.90;;;;;;;;;;5088781;28;20164;-69
2021/11/16 03:52:26;;;;;;;100.85;43.65;;;;;;;;;;5078569;28;20012;-70
2021/11/16 03:54:52;;;;;;;126.90;51.38;;;;;;;;;;5081990;28;20044;-71
2021/11/16 03:57:18;;;;;;;116.35;50.97;;;;;;;;;;5086517;28;20016;-68
2021/11/16 03:59:44;;;;;;;108.32;47.53;;;;;;;;;;5075608;28;20067;-69
2021/11/16 04:02:11;;;;;;;105.63;45.92;;;;;;;;;;5086847;28;20078;-68
2021/11/16 04:04:37;;;;;;;103.55;46.47;;;;;;;;;;5080645;28;20420;-69
2021/11/16 04:07:03;;;;;;;109.43;46.45;;;;;;;;;;5080307;28;20102;-69
2021/11/16 04:09:29;;;;;;;116.90;48.78;;;;;;;;;;5087788;28;20394;-69
2021/11/16 04:11:55;;;;;;;118.13;48.25;;;;;;;;;;5075187;28;20020;-69
2021/11/16 04:14:22;;;;;;;105.95;46.20;;;;;;;;;;5083667;28;20390;-69
2021/11/16 04:16:49;;;;;;;112.63;49.88;;;;;;;;;;5074137;28;20062;-69
2021/11/16 04:19:15;;;;;;;116.57;51.08;;;;;;;;;;5078166;28;20035;-69
2021/11/16 04:21:41;;;;;;;112.68;49.33;;;;;;;;;;5087252;28;20035;-69
2021/11/16 04:24:07;;;;;;;91.53;43.92;;;;;;;;;;5074059;28;20177;-69
2021/11/16 04:26:33;;;;;;;86.10;42.67;;;;;;;;;;5082711;28;20022;-70
2021/11/16 04:28:59;;;;;;;82.70;41.45;;;;;;;;;;5081960;28;20024;-70
2021/11/16 04:31:26;;;;;;;85.22;41.47;;;;;;;;;;5076691;28;20458;-70
2021/11/16 04:33:52;;;;;;;82.45;41.45;;;;;;;;;;5087689;28;20385;-70
2021/11/16 04:36:18;;;;;;;97.25;45.13;;;;;;;;;;5077328;28;20024;-70
2021/11/16 04:38:45;;;;;;;93.03;44.05;;;;;;;;;;5080706;28;20398;-70
2021/11/16 04:41:11;;;;;;;98.50;45.38;;;;;;;;;;5084762;28;20107;-70
2021/11/16 04:43:38;;;;;;;89.05;41.22;;;;;;;;;;5074238;28;20099;-70
2021/11/16 04:46:06;;;;;;;90.20;42.47;;;;;;;;;;5087747;28;20017;-70
2021/11/16 05:04:45;;;;;;;94.47;45.08;;;;;;;;;;5075460;28;20554;-69
2021/11/16 05:07:14;;;;;;;92.65;44.63;;;;;;;;;;5075113;28;20484;-70
2021/11/16 05:09:41;;;;;;;96.70;45.22;;;;;;;;;;5068767;28;20116;-71
2021/11/16 05:12:07;;;;;;;101.93;47.45;;;;;;;;;;5086080;28;20501;-70
2021/11/16 05:14:33;;;;;;;99.47;48.65;;;;;;;;;;5071209;28;20029;-70
2021/11/16 05:16:59;;;;;;;110.32;48.60;;;;;;;;;;5082562;28;20092;-70
2021/11/16 05:19:26;;;;;;;107.45;51.47;;;;;;;;;;5073932;28;20025;-69
2021/11/16 05:21:52;;;;;;;105.78;48.28;;;;;;;;;;5084986;28;20028;-68
2021/11/16 05:24:18;;;;;;;107.35;47.95;;;;;;;;;;5076214;28;20047;-70
2021/11/16 05:26:44;;;;;;;101.15;45.65;;;;;;;;;;5081407;28;20456;-69
2021/11/16 05:29:10;;;;;;;110.00;50.67;;;;;;;;;;5082521;28;20031;-69
2021/11/16 05:31:37;;;;;;;115.40;50.20;;;;;;;;;;5074272;28;20100;-70
2021/11/16 05:34:02;;;;;;;114.30;51.58;;;;;;;;;;5085354;28;20040;-70
2021/11/16 05:36:28;;;;;;;110.60;50.85;;;;;;;;;;5077133;28;20727;-69
2021/11/16 05:38:55;;;;;;;108.85;49.08;;;;;;;;;;5079045;28;20551;-71
2021/11/16 05:41:21;;;;;;;108.63;50.88;;;;;;;;;;5085782;28;20065;-70
2021/11/16 05:43:48;;;;;;;110.15;49.90;;;;;;;;;;5072196;28;20021;-71
2021/11/16 05:46:19;;;;;;;109.20;50.25;;;;;;;;;;5084855;28;20021;-69
2021/11/16 05:48:46;;;;;;;112.07;51.38;;;;;;;;;;5074190;28;20454;-69
2021/11/16 05:51:12;;;;;;;107.60;50.13;;;;;;;;;;5081593;28;20021;-69
2021/11/16 05:53:40;;;;;;;110.35;50.17;;;;;;;;;;5090600;28;20027;-70
2021/11/16 05:56:06;;;;;;;104.80;48.90;;;;;;;;;;5078774;28;20089;-70
2021/11/16 05:58:33;;;;;;;114.90;52.25;;;;;;;;;;5085169;28;20036;-70
2021/11/16 06:00:59;;;;;;;109.30;50.97;;;;;;;;;;5086032;28;20111;-70
2021/11/16 06:03:25;;;;;;;105.15;50.65;;;;;;;;;;5078737;28;20029;-68
2021/11/16 06:05:51;;;;;;;105.00;50.20;;;;;;;;;;5090958;28;20024;-68
2021/11/16 06:08:25;;;;;;;99.28;47.50;;;;;;;;;;5079580;28;20396;-68
2021/11/16 06:10:51;;;;;;;103.57;48.35;;;;;;;;;;5081706;28;20032;-70
2021/11/16 06:13:16;;;;;;;98.40;47.03;;;;;;;;;;5080119;28;20028;-70
2021/11/16 06:15:43;;;;;;;93.55;46.72;;;;;;;;;;5077322;28;20028;-70
2021/11/16 06:18:09;;;;;;;94.38;46.90;;;;;;;;;;5081949;28;20025;-70
2021/11/16 06:20:35;;;;;;;104.22;47.80;;;;;;;;;;5065399;28;20040;-71
2021/11/16 06:23:01;;;;;;;96.97;46.05;;;;;;;;;;5071044;28;20476;-69
2021/11/16 06:25:27;;;;;;;93.18;46.78;;;;;;;;;;5065443;28;20024;-69
2021/11/16 06:27:53;;;;;;;96.07;48.50;;;;;;;;;;5069504;28;20023;-68
2021/11/16 06:30:19;;;;;;;101.88;47.70;;;;;;;;;;5064516;28;20027;-69
2021/11/16 06:32:45;;;;;;;98.53;46.85;;;;;;;;;;5060289;28;20032;-69
2021/11/16 06:35:17;;;;;;;95.18;44.83;;;;;;;;;;5072078;28;20016;-69
2021/11/16 06:37:44;;;;;;;94.63;44.00;;;;;;;;;;5068984;28;20033;-68
2021/11/16 06:40:10;;;;;;;79.78;41.00;;;;;;;;;;5074279;28;20085;-71
2021/11/16 06:42:36;;;;;;;89.85;43.83;;;;;;;;;;5070841;28;20029;-69
2021/11/16 06:45:03;;;;;;;94.25;45.60;;;;;;;;;;5068157;28;20123;-70
2021/11/16 06:47:29;;;;;;;106.53;45.30;;;;;;;;;;5062849;28;20029;-69
2021/11/16 06:49:55;;;;;;;83.30;41.83;;;;;;;;;;5066932;28;20024;-69
2021/11/16 06:52:23;;;;;;;85.93;43.58;;;;;;;;;;5062306;28;20933;-70
2021/11/16 06:54:49;;;;;;;90.20;45.35;;;;;;;;;;5066042;28;20381;-68
2021/11/16 06:57:15;;;;;;;86.72;44.20;;;;;;;;;;5069995;28;20039;-69
2021/11/16 06:59:42;;;;;;;81.57;42.38;;;;;;;;;;5094675;22;20040;-67
2021/11/16 07:02:08;;;;;;;85.53;41.20;;;;;;;;;;5091116;28;20020;-68
2021/11/16 07:04:35;;;;;;;77.20;41.45;;;;;;;;;;5091969;28;20031;-68
2021/11/16 07:07:01;;;;;;;82.20;40.63;;;;;;;;;;5080300;28;20146;-68
2021/11/16 07:09:31;;;;;;;89.57;41.88;;;;;;;;;;5086809;28;20157;-68
2021/11/16 07:11:57;;;;;;;76.40;39.55;;;;;;;;;;5091612;28;20107;-67
2021/11/16 07:14:24;;;;;;;76.50;41.15;;;;;;;;;;5092443;28;20523;-68
2021/11/16 07:16:53;;;;;;;75.68;41.35;;;;;;;;;;5093257;28;20024;-68
2021/11/16 07:19:29;;;;;;;80.85;40.80;;;;;;;;;;5092891;28;20385;-68
2021/11/16 07:21:55;;;;;;;81.55;40.63;;;;;;;;;;5092855;28;20231;-67
2021/11/16 07:24:25;;;;;;;80.90;39.92;;;;;;;;;;5092246;28;20020;-67
2021/11/16 07:27:01;;;;;;;76.60;39.70;;;;;;;;;;5092837;28;20031;-71
2021/11/16 07:29:48;;;;;;;81.57;43.22;;;;;;;;;;5093064;28;20032;-71
2021/11/16 07:32:27;;;;;;;77.95;40.67;;;;;;;;;;5075955;28;20027;-70
2021/11/16 07:34:57;;;;;;;71.75;37.97;;;;;;;;;;5092980;28;20133;-70
2021/11/16 07:37:30;;;;;;;77.05;39.35;;;;;;;;;;5092218;28;20031;-72
2021/11/16 07:40:00;;;;;;;90.30;45.70;;;;;;;;;;5092414;28;20032;-70
2021/11/16 07:42:28;;;;;;;72.28;39.03;;;;;;;;;;5090701;28;20028;-69
2021/11/16 07:45:06;;;;;;;62.40;36.58;;;;;;;;;;5092449;28;20478;-71
2021/11/16 07:47:47;;;;;;;68.22;35.65;;;;;;;;;;5079471;28;20066;-70
2021/11/16 07:50:16;;;;;;;66.55;34.70;;;;;;;;;;5077345;28;20021;-69
2021/11/16 07:52:44;;;;;;;65.03;36.53;;;;;;;;;;5091789;28;20016;-69
2021/11/16 07:55:17;;;;;;;61.08;33.53;;;;;;;;;;5091974;28;20494;-69
2021/11/16 07:57:44;;;;;;;60.80;35.15;;;;;;;;;;5091100;28;20040;-70
2021/11/16 08:00:15;;;;;;;59.25;34.33;;;;;;;;;;5090504;28;20031;-69
2021/11/16 08:02:42;;;;;;;60.50;34.42;;;;;;;;;;5091688;28;20081;-70
2021/11/16 08:05:21;;;;;;;63.13;33.58;;;;;;;;;;5090680;28;20443;-71
2021/11/16 08:08:05;;;;;;;55.35;32.55;;;;;;;;;;5087817;28;20064;-70
2021/11/16 08:10:33;;;;;;;53.80;31.25;;;;;;;;;;5091097;28;20110;-69
2021/11/16 08:13:14;;;;;;;52.85;29.33;;;;;;;;;;5091513;28;20061;-69
2021/11/16 08:15:40;;;;;;;59.13;32.83;;;;;;;;;;5092254;28;20044;-71
2021/11/16 08:18:11;;;;;;;50.10;29.23;;;;;;;;;;5091674;28;20561;-69
2021/11/16 08:20:37;;;;;;;;;;;;;;;;;;5092206;28;20111;-70
2021/11/16 08:23:05;;;;;;;56.00;30.95;;;;;;;;;;5090930;28;19962;-70
2021/11/16 08:25:32;;;;;;;49.85;29.60;;;;;;;;;;5090604;28;20048;-70
2021/11/16 08:27:58;;;;;;;49.97;29.00;;;;;;;;;;5090413;28;20034;-70
2021/11/16 08:30:25;;;;;;;47.13;28.60;;;;;;;;;;5091918;28;20020;-70
2021/11/16 08:32:55;;;;;;;44.13;28.30;;;;;;;;;;5089938;28;20120;-74
2021/11/16 08:35:24;;;;;;;47.42;27.33;;;;;;;;;;5090754;28;20031;-71
2021/11/16 08:37:55;;;;;;;45.08;27.80;;;;;;;;;;5091947;28;20078;-71
2021/11/16 08:40:22;;;;;;;43.20;26.70;;;;;;;;;;5091612;28;20020;-72
2021/11/16 08:42:58;;;;;;;53.35;29.45;;;;;;;;;;5090823;28;20038;-72
2021/11/16 08:45:27;;;;;;;45.90;26.70;;;;;;;;;;5090351;28;20049;-71
2021/11/16 08:47:55;;;;;;;49.47;28.83;;;;;;;;;;5089427;28;20044;-71
2021/11/16 08:50:28;;;;;;;79.35;42.28;;;;;;;;;;5089976;28;20105;-72
2021/11/16 08:52:55;;;;;;;58.53;31.95;;;;;;;;;;5089457;28;20027;-72
2021/11/16 08:55:26;;;;;;;41.90;25.10;;;;;;;;;;5090063;28;20516;-71
2021/11/16 08:57:52;;;;;;;;;;;;;;;;;;5091770;28;20038;-70
2021/11/16 09:00:26;;;;;;;58.38;30.35;;;;;;;;;;5091156;28;19912;-71
2021/11/16 09:03:00;;;;;;;42.25;25.67;;;;;;;;;;5090705;28;20375;-69
2021/11/16 09:05:30;;;;;;;39.55;23.92;;;;;;;;;;5091451;28;20055;-69
2021/11/16 09:08:01;;;;;;;43.38;26.13;;;;;;;;;;5089680;28;20073;-70
2021/11/16 09:10:38;;;;;;;50.45;26.85;;;;;;;;;;5091252;28;20143;-69
2021/11/16 09:13:05;;;;;;;37.72;23.55;;;;;;;;;;5090575;28;20031;-70
2021/11/16 09:15:42;;;;;;;100.82;50.72;;;;;;;;;;5090968;28;20063;-70
2021/11/16 09:18:08;;;;;;;163.35;71.93;;;;;;;;;;5075348;28;20031;-73
2021/11/16 09:20:34;;;;;;;179.63;73.47;;;;;;;;;;5090901;28;20106;-70
2021/11/16 09:23:00;;;;;;;39.10;25.08;;;;;;;;;;5093785;28;20081;-70
2021/11/16 09:25:29;;;;;;;39.88;22.85;;;;;;;;;;5095593;28;20030;-70
2021/11/16 09:28:03;;;;;;;40.47;22.95;;;;;;;;;;5095417;28;20020;-72
2021/11/16 09:30:34;;;;;;;36.45;22.50;;;;;;;;;;5095369;28;20367;-71
2021/11/16 09:33:02;;;;;;;35.42;21.90;;;;;;;;;;5093033;28;20024;-70
2021/11/16 09:35:41;;;;;;;95.57;47.65;;;;;;;;;;5095072;28;20107;-70
2021/11/16 09:38:07;;;;;;;34.53;22.85;;;;;;;;;;5079105;28;20474;-68
2021/11/16 09:40:33;;;;;;;49.17;26.65;;;;;;;;;;5094962;28;20020;-68
2021/11/16 09:43:01;;;;;;;36.35;23.45;;;;;;;;;;5094391;28;20095;-68
2021/11/16 09:45:31;;;;;;;95.22;45.67;;;;;;;;;;5094940;28;20027;-72
2021/11/16 09:47:57;;;;;;;35.00;21.80;;;;;;;;;;5094927;28;20020;-72
2021/11/16 09:50:25;;;;;;;34.05;21.13;;;;;;;;;;5093907;28;20140;-72
2021/11/16 09:52:52;;;;;;;63.25;34.17;;;;;;;;;;5092868;28;20050;-71
2021/11/16 09:55:29;;;;;;;34.28;22.33;;;;;;;;;;5093157;28;20024;-72
2021/11/16 09:57:56;;;;;;;35.38;22.60;;;;;;;;;;5094914;28;20035;-73
2021/11/16 10:00:28;;;;;;;40.05;24.48;;;;;;;;;;5094467;28;20448;-72
2021/11/16 10:03:06;;;;;;;94.97;44.60;;;;;;;;;;5092355;28;20104;-72
2021/11/16 10:05:38;;;;;;;39.50;24.75;;;;;;;;;;5092388;28;20032;-70
2021/11/16 10:08:05;;;;;;;35.55;21.85;;;;;;;;;;5089320;28;20473;-72
2021/11/16 10:10:32;;;;;;;34.67;23.23;;;;;;;;;;5094222;28;20148;-73
2021/11/16 10:13:07;;;;;;;32.35;23.20;;;;;;;;;;5093860;28;20046;-74
2021/11/16 10:15:34;;;;;;;44.25;26.77;;;;;;;;;;5094301;28;20028;-71
2021/11/16 10:18:00;;;;;;;41.88;25.55;;;;;;;;;;5093738;28;20020;-71
2021/11/16 10:20:28;;;;;;;34.83;23.67;;;;;;;;;;5093940;28;20021;-72
2021/11/16 10:22:57;;;;;;;33.17;23.52;;;;;;;;;;5093269;28;20024;-70
2021/11/16 10:25:25;;;;;;;43.80;28.25;;;;;;;;;;5094270;28;20115;-72
2021/11/16 10:27:53;;;;;;;107.43;61.75;;;;;;;;;;5094156;28;20674;-71
2021/11/16 10:30:24;;;;;;;36.42;23.08;;;;;;;;;;5094097;28;20077;-73
2021/11/16 10:33:07;;;;;;;36.65;25.58;;;;;;;;;;5092823;28;20440;-71
2021/11/16 10:35:34;;;;;;;38.08;24.83;;;;;;;;;;5094077;28;20473;-72
2021/11/16 10:38:04;;;;;;;42.20;26.73;;;;;;;;;;5094065;28;20028;-72
2021/11/16 10:40:30;;;;;;;60.22;35.70;;;;;;;;;;5093909;28;20020;-73
2021/11/16 10:42:58;;;;;;;62.75;34.33;;;;;;;;;;5091729;28;20027;-72
2021/11/16 10:45:27;;;;;;;73.90;42.60;;;;;;;;;;5093776;28;20047;-73
2021/11/16 10:47:56;;;;;;;42.67;27.92;;;;;;;;;;5092164;28;20481;-71
2021/11/16 10:50:26;;;;;;;37.03;24.30;;;;;;;;;;5093455;28;20024;-70
2021/11/16 10:53:06;;;;;;;73.85;40.47;;;;;;;;;;5089514;28;20020;-70
2021/11/16 10:55:38;;;;;;;37.85;24.48;;;;;;;;;;5089957;28;20027;-71
2021/11/16 10:58:08;;;;;;;32.05;21.20;;;;;;;;;;5091255;28;20028;-70
2021/11/16 11:00:36;;;;;;;71.28;38.33;;;;;;;;;;5089742;28;20111;-70
2021/11/16 11:03:29;;;;;;;33.35;22.83;;;;;;;;;;5091084;28;20107;-73
2021/11/16 11:05:56;;;;;;;39.90;25.13;;;;;;;;;;5077346;28;20036;-72
2021/11/16 11:08:30;;;;;;;38.08;23.15;;;;;;;;;;5092632;28;20331;-70
2021/11/16 11:10:56;;;;;;;49.20;28.15;;;;;;;;;;5092583;28;20444;-73
2021/11/16 11:13:23;;;;;;;35.40;22.98;;;;;;;;;;5089305;28;20216;-71
2021/11/16 11:15:50;;;;;;;32.70;21.75;;;;;;;;;;5092183;28;20533;-72
2021/11/16 11:18:29;;;;;;;38.20;24.08;;;;;;;;;;5092592;28;20028;-72
2021/11/16 11:20:57;;;;;;;51.70;24.13;;;;;;;;;;5090019;28;20284;-72
2021/11/16 11:23:41;;;;;;;47.63;29.77;;;;;;;;;;5088968;28;20028;-72
2021/11/16 11:26:38;;;;;;;32.17;22.25;;;;;;;;;;5077032;28;20020;-72
2021/11/16 11:29:23;;;;;;;33.70;22.65;;;;;;;;;;5087590;28;20111;-72
2021/11/16 11:31:50;;;;;;;42.40;25.38;;;;;;;;;;5091384;28;20020;-72
2021/11/16 11:34:17;;;;;;;33.67;23.08;;;;;;;;;;5092097;28;20016;-71
2021/11/16 11:36:43;;;;;;;42.50;26.73;;;;;;;;;;5092844;28;20501;-72
2021/11/16 11:39:16;;;;;;;36.92;24.75;;;;;;;;;;5092948;28;20085;-71
2021/11/16 11:41:49;;;;;;;32.70;23.40;;;;;;;;;;5091287;28;20113;-70
2021/11/16 11:44:17;;;;;;;42.97;27.05;;;;;;;;;;5089208;28;20036;-72
2021/11/16 11:46:51;;;;;;;42.35;26.85;;;;;;;;;;5092719;28;20493;-72
2021/11/16 11:49:18;;;;;;;46.17;29.42;;;;;;;;;;5092283;28;20065;-71
2021/11/16 11:51:44;;;;;;;36.58;23.60;;;;;;;;;;5092130;28;20065;-72
2021/11/16 11:54:11;;;;;;;35.78;23.88;;;;;;;;;;5091994;28;20013;-72
2021/11/16 11:56:37;;;;;;;53.40;32.13;;;;;;;;;;5092376;28;20020;-72
2021/11/16 11:59:03;;;;;;;51.17;31.67;;;;;;;;;;5090904;28;20024;-70
2021/11/16 12:01:30;;;;;;;33.42;22.45;;;;;;;;;;5092334;28;20028;-72
2021/11/16 12:03:57;;;;;;;44.35;26.45;;;;;;;;;;5090373;28;20162;-71
2021/11/16 12:06:24;;;;;;;33.20;22.92;;;;;;;;;;5091098;28;20016;-72
2021/11/16 12:08:51;;;;;;;41.03;24.40;;;;;;;;;;5085298;28;20044;-71
2021/11/16 12:11:19;;;;;;;41.58;26.35;;;;;;;;;;5092453;28;20074;-72
2021/11/16 12:13:44;;;;;;;45.70;29.35;;;;;;;;;;5091167;28;20106;-72
2021/11/16 12:16:13;;;;;;;30.15;22.17;;;;;;;;;;5092064;28;20059;-71
2021/11/16 12:18:45;;;;;;;34.75;23.83;;;;;;;;;;5090759;28;20485;-73
2021/11/16 12:21:26;;;;;;;39.30;26.02;;;;;;;;;;5090840;28;20032;-73
2021/11/16 12:23:55;;;;;;;;;;;;;;;;;;5085921;28;20021;-70
2021/11/16 12:26:22;;;;;;;37.60;24.02;;;;;;;;;;5089817;28;19919;-71
2021/11/16 12:28:48;;;;;;;36.78;23.75;;;;;;;;;;5091741;28;20030;-70
2021/11/16 12:31:28;;;;;;;31.95;22.25;;;;;;;;;;5091891;28;20103;-70
2021/11/16 12:33:54;;;;;;;34.20;23.80;;;;;;;;;;5091034;28;20035;-71
2021/11/16 12:36:32;;;;;;;38.35;25.98;;;;;;;;;;5091550;28;20405;-71
2021/11/16 12:39:10;;;;;;;32.78;24.13;;;;;;;;;;5090444;28;20028;-69
2021/11/16 12:41:38;;;;;;;35.85;25.27;;;;;;;;;;5090199;28;20060;-72
2021/11/16 12:44:08;;;;;;;35.47;25.40;;;;;;;;;;5091125;28;20024;-71
2021/11/16 12:46:37;;;;;;;32.50;22.73;;;;;;;;;;5091447;28;20393;-70
2021/11/16 12:49:04;;;;;;;31.60;22.85;;;;;;;;;;5089926;28;20020;-70
2021/11/16 12:51:33;;;;;;;58.85;35.22;;;;;;;;;;5091704;28;20026;-70
2021/11/16 12:54:03;;;;;;;33.85;22.63;;;;;;;;;;5090414;28;20485;-70
2021/11/16 12:56:48;;;;;;;33.13;22.20;;;;;;;;;;5091042;28;20028;-71
2021/11/16 12:59:21;;;;;;;44.50;27.58;;;;;;;;;;5104092;22;20101;-72
2021/11/16 13:01:48;;;;;;;46.17;29.85;;;;;;;;;;5088912;28;20085;-72
2021/11/16 13:04:16;;;;;;;31.42;22.10;;;;;;;;;;5075461;28;20069;-74
2021/11/16 13:06:43;;;;;;;29.88;22.13;;;;;;;;;;5081319;28;20036;-73
2021/11/16 13:09:11;;;;;;;40.45;24.48;;;;;;;;;;5083846;28;20110;-70
2021/11/16 13:11:45;;;;;;;32.13;23.15;;;;;;;;;;5057537;28;20100;-71
2021/11/16 13:14:13;;;;;;;68.80;38.42;;;;;;;;;;5057706;28;20031;-71
2021/11/16 13:16:39;;;;;;;40.03;25.65;;;;;;;;;;5080114;28;20081;-73
2021/11/16 13:19:08;;;;;;;30.55;22.20;;;;;;;;;;5081253;28;20126;-73
2021/11/16 13:21:38;;;;;;;66.03;39.55;;;;;;;;;;5073651;28;20020;-70
2021/11/16 13:24:07;;;;;;;51.15;31.25;;;;;;;;;;5085918;28;20028;-74
2021/11/16 13:26:43;;;;;;;32.92;23.65;;;;;;;;;;5078646;28;20020;-75
2021/11/16 13:29:22;;;;;;;35.45;24.80;;;;;;;;;;5078783;28;20020;-75
2021/11/16 13:31:53;;;;;;;34.30;24.15;;;;;;;;;;5087731;28;20138;-76
2021/11/16 13:34:49;;;;;;;38.72;26.63;;;;;;;;;;5076492;28;20488;-77
2021/11/16 13:37:20;;;;;;;38.38;24.17;;;;;;;;;;5072841;28;20121;-76
2021/11/16 13:40:06;;;;;;;36.38;25.27;;;;;;;;;;5074671;28;20024;-76
2021/11/16 13:42:32;;;;;;;35.38;24.58;;;;;;;;;;5090649;28;20028;-74
2021/11/16 13:44:59;;;;;;;39.00;25.65;;;;;;;;;;5080288;28;20027;-75
2021/11/16 13:47:34;;;;;;;40.83;27.42;;;;;;;;;;5085167;28;20067;-74
2021/11/16 13:50:24;;;;;;;51.05;32.75;;;;;;;;;;5073329;28;21358;-75
2021/11/16 13:52:52;;;;;;;40.42;26.25;;;;;;;;;;5080957;28;20481;-75
2021/11/16 13:55:22;;;;;;;41.88;28.80;;;;;;;;;;5085055;28;20016;-74
2021/11/16 13:57:53;;;;;;;45.30;28.58;;;;;;;;;;5073081;28;20021;-74
2021/11/16 14:00:25;;;;;;;43.20;28.88;;;;;;;;;;5085461;28;20112;-74
2021/11/16 14:02:56;;;;;;;44.97;29.83;;;;;;;;;;5078922;28;20569;-74
2021/11/16 14:05:23;;;;;;;41.45;28.13;;;;;;;;;;5075012;28;20032;-74
2021/11/16 14:07:49;;;;;;;41.35;28.70;;;;;;;;;;5077335;28;20523;-73
2021/11/16 14:10:16;;;;;;;44.92;30.67;;;;;;;;;;5072068;28;20065;-72
2021/11/16 14:12:43;;;;;;;45.40;30.48;;;;;;;;;;5072883;28;20024;-74
2021/11/16 14:15:14;;;;;;;41.58;29.02;;;;;;;;;;5073296;28;20021;-74
2021/11/16 14:17:40;;;;;;;46.58;30.00;;;;;;;;;;5072718;28;20029;-72
2021/11/16 14:20:06;;;;;;;42.22;28.52;;;;;;;;;;5090866;28;20048;-71
2021/11/16 14:22:37;;;;;;;42.63;29.38;;;;;;;;;;5069405;28;20490;-73
2021/11/16 14:25:20;;;;;;;52.27;33.43;;;;;;;;;;5068075;28;20020;-71
2021/11/16 14:28:02;;;;;;;44.58;30.27;;;;;;;;;;5091015;28;20263;-75
2021/11/16 14:30:28;;;;;;;;;;;;;;;;;;5073098;28;20035;-73
2021/11/16 14:33:00;;;;;;;43.53;29.35;;;;;;;;;;5082876;28;19904;-72
2021/11/16 14:35:27;;;;;;;39.25;29.48;;;;;;;;;;5080204;28;20397;-71
2021/11/16 14:37:54;;;;;;;40.92;28.85;;;;;;;;;;5074936;28;20559;-71
2021/11/16 14:40:21;;;;;;;43.42;31.10;;;;;;;;;;5089313;28;20099;-72
2021/11/16 14:42:48;;;;;;;43.58;31.60;;;;;;;;;;5073818;28;20024;-74